createdAt,value
2023-02-08T00:03:35.208Z,101600.75
2023-02-08T00:08:40.673Z,101595.19
2023-02-08T00:13:44.125Z,101604.56
2023-02-08T00:18:47.453Z,101613.16
2023-02-08T00:23:52.353Z,101602.53
2023-02-08T00:28:55.813Z,101605.13
2023-02-08T00:33:59.284Z,101611.78
2023-02-08T00:39:04.213Z,101604.72
2023-02-08T00:44:07.830Z,101598.00
2023-02-08T00:49:11.436Z,101598.31
2023-02-08T00:54:17.579Z,101593.50
2023-02-08T00:59:20.940Z,101590.13
2023-02-08T01:04:24.320Z,101586.63
2023-02-08T01:09:29.286Z,101577.34
2023-02-08T01:14:32.804Z,101573.00
2023-02-08T01:19:36.422Z,101567.47
2023-02-08T01:24:41.225Z,101563.78
2023-02-08T01:29:44.567Z,101573.22
2023-02-08T01:34:48.123Z,101561.53
2023-02-08T01:39:53.051Z,101561.25
2023-02-08T01:45:30.684Z,101562.00
2023-02-08T01:50:43.280Z,101570.97
2023-02-08T01:55:52.429Z,101567.75
2023-02-08T02:00:56.396Z,101568.69
2023-02-08T02:06:08.410Z,101562.47
2023-02-08T02:11:14.481Z,101554.53
2023-02-08T02:16:18.453Z,101554.59
2023-02-08T02:21:47.339Z,101544.44
2023-02-08T02:27:10.981Z,101545.94
2023-02-08T02:32:31.775Z,101538.38
2023-02-08T02:37:49.953Z,101546.78
2023-02-08T02:43:25.015Z,101534.63
2023-02-08T02:48:35.424Z,101534.69
2023-02-08T02:53:46.359Z,101542.44
2023-02-08T02:58:51.064Z,101524.69
2023-02-08T03:03:55.788Z,101515.66
2023-02-08T03:09:27.550Z,101515.75
2023-02-08T03:14:42.360Z,101524.63
2023-02-08T03:19:52.643Z,101514.88
2023-02-08T03:24:58.326Z,101511.06
2023-02-08T03:30:04.792Z,101503.66
2023-02-08T03:35:17.082Z,101496.38
2023-02-08T03:40:25.876Z,101506.16
2023-02-08T03:45:34.193Z,101502.66
2023-02-08T03:50:41.843Z,101507.31
2023-02-08T03:55:49.363Z,101500.13
2023-02-08T04:00:57.730Z,101489.53
2023-02-08T04:06:02.707Z,101483.91
2023-02-08T04:11:06.418Z,101478.91
2023-02-08T04:16:11.699Z,101477.91
2023-02-08T04:21:16.592Z,101478.16
2023-02-08T04:26:19.986Z,101480.66
2023-02-08T04:31:23.779Z,101485.19
2023-02-08T04:36:28.793Z,101483.31
2023-02-08T04:41:32.377Z,101487.84
2023-02-08T04:46:35.757Z,101487.22
2023-02-08T04:51:40.699Z,101483.03
2023-02-08T04:56:44.112Z,101467.41
2023-02-08T05:01:47.717Z,101481.31
2023-02-08T05:06:52.663Z,101467.22
2023-02-08T05:11:56.078Z,101472.22
2023-02-08T05:16:59.522Z,101464.91
2023-02-08T05:22:04.785Z,101458.78
2023-02-08T05:27:08.260Z,101468.59
2023-02-08T05:32:11.812Z,101468.78
2023-02-08T05:37:16.716Z,101450.63
2023-02-08T05:42:20.249Z,101448.34
2023-02-08T05:47:23.780Z,101448.38
2023-02-08T05:52:28.635Z,101451.28
2023-02-08T05:57:34.264Z,101445.50
2023-02-08T06:02:39.137Z,101433.50
2023-02-08T06:07:43.936Z,101453.03
2023-02-08T06:12:47.332Z,101448.25
2023-02-08T06:17:50.861Z,101436.78
2023-02-08T06:22:56.692Z,101429.09
2023-02-08T06:28:00.307Z,101427.91
2023-02-08T06:33:03.877Z,101430.94
2023-02-08T06:38:08.651Z,101427.09
2023-02-08T06:43:11.899Z,101433.28
2023-02-08T06:48:15.982Z,101418.16
2023-02-08T06:53:21.685Z,101426.19
2023-02-08T06:58:25.018Z,101409.25
2023-02-08T07:03:28.603Z,101409.00
2023-02-08T07:08:34.062Z,101400.34
2023-02-08T07:13:38.599Z,101399.34
2023-02-08T07:18:42.005Z,101397.31
2023-02-08T07:23:47.077Z,101397.69
2023-02-08T07:28:50.475Z,101389.16
2023-02-08T07:33:53.961Z,101395.13
2023-02-08T07:38:59.044Z,101390.28
2023-02-08T07:44:02.428Z,101390.25
2023-02-08T07:49:06.092Z,101384.03
2023-02-08T07:54:10.934Z,101393.50
2023-02-08T07:59:14.663Z,101389.28
2023-02-08T08:04:20.015Z,101365.31
2023-02-08T08:09:25.107Z,101355.59
2023-02-08T08:14:28.488Z,101357.28
2023-02-08T08:19:31.840Z,101347.47
2023-02-08T08:24:36.980Z,101352.50
2023-02-08T08:29:40.445Z,101358.91
2023-02-08T08:34:44.038Z,101360.69
2023-02-08T08:39:49.071Z,101312.44
2023-02-08T08:44:52.744Z,101352.06
2023-02-08T08:49:56.323Z,101322.31
2023-02-08T08:55:01.212Z,101331.53
2023-02-08T09:00:04.651Z,101339.25
2023-02-08T09:05:08.655Z,101336.63
2023-02-08T09:10:13.615Z,101313.25
2023-02-08T09:15:17.248Z,101302.94
2023-02-08T09:20:21.964Z,101315.72
2023-02-08T09:25:27.492Z,101317.66
2023-02-08T09:30:30.886Z,101320.72
2023-02-08T09:35:34.391Z,101310.41
2023-02-08T09:40:47.193Z,101299.94
2023-02-08T09:46:00.336Z,101287.84
2023-02-08T09:51:11.236Z,101291.63
2023-02-08T09:56:18.218Z,101280.06
2023-02-08T10:01:25.947Z,101281.41
2023-02-08T10:06:31.949Z,101272.81
2023-02-08T10:11:51.450Z,101261.56
2023-02-08T10:17:03.765Z,101251.75
2023-02-08T10:22:19.349Z,101256.88
2023-02-08T10:27:30.148Z,101262.44
2023-02-08T10:32:50.428Z,101264.25
2023-02-08T10:37:58.109Z,101262.28
2023-02-08T10:43:16.428Z,101252.19
2023-02-08T10:48:33.174Z,101250.53
2023-02-08T10:53:36.524Z,101257.09
2023-02-08T10:58:41.491Z,101240.75
2023-02-08T11:04:03.142Z,101246.38
2023-02-08T11:09:07.148Z,101228.22
2023-02-08T11:14:18.632Z,101229.22
2023-02-08T11:19:35.591Z,101218.13
2023-02-08T11:24:41.900Z,101207.94
2023-02-08T11:29:46.819Z,101204.56
2023-02-08T11:34:50.098Z,101193.94
2023-02-08T11:39:55.586Z,101198.09
2023-02-08T11:45:02.285Z,101187.84
2023-02-08T11:50:11.203Z,101187.25
2023-02-08T11:55:24.388Z,101189.94
2023-02-08T12:00:31.380Z,101175.50
2023-02-08T12:05:45.511Z,101174.47
2023-02-08T12:11:15.756Z,101173.56
2023-02-08T12:16:34.591Z,101164.38
2023-02-08T12:21:52.530Z,101166.50
2023-02-08T12:27:14.608Z,101149.63
2023-02-08T12:32:38.928Z,101152.94
2023-02-08T12:38:05.046Z,101148.28
2023-02-08T12:43:17.963Z,101150.16
2023-02-08T12:48:43.473Z,101144.25
2023-02-08T12:53:52.200Z,101136.66
2023-02-08T12:59:08.292Z,101118.38
2023-02-08T13:04:22.018Z,101108.59
2023-02-08T13:09:40.371Z,101124.75
2023-02-08T13:14:48.416Z,101106.63
2023-02-08T13:20:02.787Z,101118.06
2023-02-08T13:25:15.157Z,101128.00
2023-02-08T13:30:21.029Z,101099.22
2023-02-08T13:35:30.315Z,101112.72
2023-02-08T13:40:36.630Z,101119.88
2023-02-08T13:45:44.077Z,101108.66
2023-02-08T13:50:51.333Z,101108.53
2023-02-08T13:55:58.549Z,101111.56
2023-02-08T14:01:18.397Z,101107.44
2023-02-08T14:06:26.331Z,101101.59
2023-02-08T14:11:43.953Z,101115.91
2023-02-08T14:16:48.817Z,101111.25
2023-02-08T14:22:02.606Z,101110.19
2023-02-08T14:27:12.797Z,101100.31
2023-02-08T14:32:25.351Z,101100.06
2023-02-08T14:37:32.690Z,101098.75
2023-02-08T14:42:55.929Z,101097.44
2023-02-08T14:48:15.415Z,101094.22
2023-02-08T14:53:27.071Z,101115.50
2023-02-08T14:58:33.612Z,101100.31
2023-02-08T15:03:37.660Z,101084.94
2023-02-08T15:08:42.670Z,101088.44
2023-02-08T15:13:51.293Z,101086.25
2023-02-08T15:18:55.037Z,101076.91
2023-02-08T15:24:06.049Z,101078.47
2023-02-08T15:29:19.896Z,101072.91
2023-02-08T15:34:26.744Z,101083.94
2023-02-08T15:39:35.882Z,101081.91
2023-02-08T15:44:44.741Z,101074.09
2023-02-08T15:49:50.972Z,101070.63
2023-02-08T15:54:56.136Z,101065.19
2023-02-08T16:00:00.272Z,101067.06
2023-02-08T16:05:12.736Z,101069.25
2023-02-08T16:10:31.346Z,101074.66
2023-02-08T16:15:45.099Z,101078.81
2023-02-08T16:20:58.264Z,101078.16
2023-02-08T16:26:19.572Z,101072.84
2023-02-08T16:31:26.990Z,101078.31
2023-02-08T16:36:36.362Z,101081.88
2023-02-08T16:42:14.549Z,101081.31
2023-02-08T16:47:27.984Z,101075.47
2023-02-08T16:52:31.456Z,101089.19
2023-02-08T16:57:47.599Z,101089.94
2023-02-08T17:02:51.930Z,101085.84
2023-02-08T17:07:55.435Z,101086.41
2023-02-08T17:13:19.914Z,101083.13
2023-02-08T17:18:24.610Z,101083.53
2023-02-08T17:23:28.323Z,101075.38
2023-02-08T17:28:35.861Z,101076.78
2023-02-08T17:33:40.359Z,101081.72
2023-02-08T17:38:45.702Z,101067.34
2023-02-08T17:43:54.015Z,101071.28
2023-02-08T17:48:59.734Z,101065.09
2023-02-08T17:54:06.118Z,101054.38
2023-02-08T17:59:11.039Z,101058.47
2023-02-08T18:04:14.666Z,101042.06
2023-02-08T18:09:18.174Z,101035.88
2023-02-08T18:14:23.106Z,101026.91
2023-02-08T18:19:26.308Z,101027.00
2023-02-08T18:24:31.867Z,101025.34
2023-02-08T18:29:37.283Z,101026.03
2023-02-08T18:34:43.144Z,101028.41
2023-02-08T18:39:46.506Z,101017.16
2023-02-08T18:44:51.463Z,101017.38
2023-02-08T18:49:55.791Z,101011.06
2023-02-08T18:54:59.293Z,101011.06
2023-02-08T19:00:04.560Z,101003.41
2023-02-08T19:05:08.663Z,101004.56
2023-02-08T19:10:12.166Z,100998.00
2023-02-08T19:15:17.962Z,100991.59
2023-02-08T19:20:22.220Z,100979.63
2023-02-08T19:25:28.694Z,100979.09
2023-02-08T19:30:33.787Z,100983.53
2023-02-08T19:35:40.948Z,100961.53
2023-02-08T19:40:44.359Z,100972.13
2023-02-08T19:45:49.156Z,100956.09
2023-02-08T19:50:56.864Z,100957.56
2023-02-08T19:56:01.836Z,100956.50
2023-02-08T20:01:09.318Z,100950.94
2023-02-08T20:06:17.472Z,100943.28
2023-02-08T20:11:23.345Z,100938.19
2023-02-08T20:16:31.638Z,100941.75
2023-02-08T20:21:39.936Z,100932.38
2023-02-08T20:26:44.766Z,100935.03
2023-02-08T20:31:52.141Z,100941.56
2023-02-08T20:37:06.789Z,100926.00
2023-02-08T20:42:11.296Z,100924.91
2023-02-08T20:47:19.247Z,100926.22
2023-02-08T20:52:22.633Z,100912.22
2023-02-08T20:57:26.281Z,100925.31
2023-02-08T21:02:31.286Z,100924.13
2023-02-08T21:07:34.814Z,100935.72
2023-02-08T21:12:38.661Z,100922.84
2023-02-08T21:17:43.631Z,100929.63
2023-02-08T21:22:46.723Z,100933.47
2023-02-08T21:27:50.154Z,100933.25
2023-02-08T21:32:54.970Z,100900.34
2023-02-08T21:37:58.484Z,100934.34
2023-02-08T21:43:01.865Z,100930.00
2023-02-08T21:48:07.122Z,100931.78
2023-02-08T21:53:28.862Z,100917.53
2023-02-08T21:58:32.333Z,100930.22
2023-02-08T22:03:37.248Z,100923.16
2023-02-08T22:08:40.655Z,100928.13
2023-02-08T22:13:45.308Z,100929.91
2023-02-08T22:18:50.125Z,100940.25
2023-02-08T22:23:53.551Z,100935.78
2023-02-08T22:28:56.914Z,100936.13
2023-02-08T22:39:22.610Z,100931.19
2023-02-08T22:44:26.132Z,100927.44
2023-02-08T22:49:31.223Z,100922.91
2023-02-08T22:54:35.088Z,100921.25
2023-02-08T22:59:38.928Z,100918.19
2023-02-08T23:04:43.868Z,100923.50
2023-02-08T23:09:47.324Z,100918.84
2023-02-08T23:14:51.372Z,100920.25
2023-02-08T23:19:56.268Z,100926.28
2023-02-08T23:24:59.524Z,100920.75
2023-02-08T23:30:02.893Z,100917.69
2023-02-08T23:35:10.809Z,100923.91
2023-02-08T23:40:14.418Z,100932.19
2023-02-08T23:45:17.941Z,100924.78
2023-02-08T23:50:22.873Z,100932.47
2023-02-08T23:55:26.192Z,100931.88
